sensor_id;sensor_type;location;lat;lon;timestamp;pressure;altitude;pressure_sealevel;temperature;humidity
77939;BME280;67136;47.546;21.630;2023-04-06T00:02:10;100250.50;;;0.41;58.83
77939;BME280;67136;47.546;21.630;2023-04-06T00:05:13;100247.28;;;0.36;59.02
77939;BME280;67136;47.546;21.630;2023-04-06T00:08:16;100253.31;;;0.35;58.87
77939;BME280;67136;47.546;21.630;2023-04-06T00:11:18;100244.97;;;0.30;58.94
77939;BME280;67136;47.546;21.630;2023-04-06T00:14:22;100239.75;;;0.31;59.03
77939;BME280;67136;47.546;21.630;2023-04-06T00:17:25;100244.69;;;0.36;59.02
77939;BME280;67136;47.546;21.630;2023-04-06T00:20:27;100233.97;;;0.26;59.32
77939;BME280;67136;47.546;21.630;2023-04-06T00:23:30;100235.25;;;0.36;59.28
77939;BME280;67136;47.546;21.630;2023-04-06T00:26:33;100231.47;;;0.25;59.04
77939;BME280;67136;47.546;21.630;2023-04-06T00:29:36;100225.94;;;0.34;59.15
77939;BME280;67136;47.546;21.630;2023-04-06T00:32:39;100229.53;;;0.30;59.46
77939;BME280;67136;47.546;21.630;2023-04-06T00:35:42;100223.97;;;0.20;58.91
77939;BME280;67136;47.546;21.630;2023-04-06T00:38:44;100228.47;;;0.35;59.00
77939;BME280;67136;47.546;21.630;2023-04-06T00:41:51;100215.41;;;0.40;58.85
77939;BME280;67136;47.546;21.630;2023-04-06T00:45:01;100213.59;;;0.42;58.78
77939;BME280;67136;47.546;21.630;2023-04-06T00:48:04;100214.19;;;0.48;58.55
77939;BME280;67136;47.546;21.630;2023-04-06T00:51:07;100211.09;;;0.40;58.66
77939;BME280;67136;47.546;21.630;2023-04-06T00:54:10;100204.75;;;0.49;58.56
77939;BME280;67136;47.546;21.630;2023-04-06T00:57:14;100194.97;;;0.37;58.46
77939;BME280;67136;47.546;21.630;2023-04-06T01:00:17;100195.53;;;0.43;59.03
77939;BME280;67136;47.546;21.630;2023-04-06T01:03:20;100196.25;;;0.47;58.66
77939;BME280;67136;47.546;21.630;2023-04-06T01:06:23;100198.19;;;0.42;58.97
77939;BME280;67136;47.546;21.630;2023-04-06T01:09:28;100199.00;;;0.42;58.90
77939;BME280;67136;47.546;21.630;2023-04-06T01:12:33;100198.28;;;0.39;58.51
77939;BME280;67136;47.546;21.630;2023-04-06T01:15:37;100195.91;;;0.34;58.49
77939;BME280;67136;47.546;21.630;2023-04-06T01:18:42;100191.25;;;0.44;58.59
77939;BME280;67136;47.546;21.630;2023-04-06T01:21:46;100193.91;;;0.41;58.41
77939;BME280;67136;47.546;21.630;2023-04-06T01:24:48;100196.25;;;0.47;58.54
77939;BME280;67136;47.546;21.630;2023-04-06T01:27:51;100198.53;;;0.53;59.04
77939;BME280;67136;47.546;21.630;2023-04-06T01:30:54;100192.81;;;0.46;58.87
77939;BME280;67136;47.546;21.630;2023-04-06T01:33:58;100191.09;;;0.47;58.80
77939;BME280;67136;47.546;21.630;2023-04-06T01:37:01;100192.13;;;0.43;58.47
77939;BME280;67136;47.546;21.630;2023-04-06T01:40:05;100185.31;;;0.42;58.65
77939;BME280;67136;47.546;21.630;2023-04-06T01:43:09;100176.84;;;0.40;58.99
77939;BME280;67136;47.546;21.630;2023-04-06T01:46:13;100176.06;;;0.38;58.84
77939;BME280;67136;47.546;21.630;2023-04-06T01:49:17;100170.53;;;0.47;58.71
77939;BME280;67136;47.546;21.630;2023-04-06T01:52:21;100171.09;;;0.53;58.71
77939;BME280;67136;47.546;21.630;2023-04-06T01:55:24;100159.41;;;0.46;58.71
77939;BME280;67136;47.546;21.630;2023-04-06T01:58:28;100155.25;;;0.44;59.97
77939;BME280;67136;47.546;21.630;2023-04-06T02:01:32;100149.44;;;0.59;58.32
77939;BME280;67136;47.546;21.630;2023-04-06T02:04:37;100152.09;;;0.56;58.46
77939;BME280;67136;47.546;21.630;2023-04-06T02:07:41;100153.25;;;0.69;57.92
77939;BME280;67136;47.546;21.630;2023-04-06T02:10:47;100148.16;;;0.67;58.38
77939;BME280;67136;47.546;21.630;2023-04-06T02:13:50;100144.12;;;0.62;58.11
77939;BME280;67136;47.546;21.630;2023-04-06T02:16:53;100144.38;;;0.56;58.41
77939;BME280;67136;47.546;21.630;2023-04-06T02:19:57;100135.87;;;0.74;58.95
77939;BME280;67136;47.546;21.630;2023-04-06T02:22:59;100132.47;;;0.73;58.60
77939;BME280;67136;47.546;21.630;2023-04-06T02:26:02;100124.81;;;0.72;58.22
77939;BME280;67136;47.546;21.630;2023-04-06T02:29:05;100131.69;;;0.71;57.84
77939;BME280;67136;47.546;21.630;2023-04-06T02:32:09;100129.19;;;0.70;58.04
77939;BME280;67136;47.546;21.630;2023-04-06T02:35:12;100131.13;;;0.65;58.22
77939;BME280;67136;47.546;21.630;2023-04-06T02:38:15;100136.41;;;0.62;58.56
77939;BME280;67136;47.546;21.630;2023-04-06T02:41:19;100132.75;;;0.47;59.17
77939;BME280;67136;47.546;21.630;2023-04-06T02:44:22;100135.13;;;0.33;59.78
77939;BME280;67136;47.546;21.630;2023-04-06T02:47:25;100132.72;;;0.29;59.90
77939;BME280;67136;47.546;21.630;2023-04-06T02:50:28;100135.00;;;0.16;60.42
77939;BME280;67136;47.546;21.630;2023-04-06T02:53:31;100124.16;;;0.10;61.74
77939;BME280;67136;47.546;21.630;2023-04-06T02:56:34;100126.41;;;-0.03;61.02
77939;BME280;67136;47.546;21.630;2023-04-06T02:59:37;100128.41;;;-0.10;63.23
77939;BME280;67136;47.546;21.630;2023-04-06T03:02:41;100124.31;;;-0.14;62.77
77939;BME280;67136;47.546;21.630;2023-04-06T03:05:44;100122.81;;;-0.19;63.96
77939;BME280;67136;47.546;21.630;2023-04-06T03:08:48;100118.63;;;-0.22;63.23
77939;BME280;67136;47.546;21.630;2023-04-06T03:11:50;100118.81;;;-0.26;63.99
77939;BME280;67136;47.546;21.630;2023-04-06T03:14:53;100118.75;;;-0.25;64.72
77939;BME280;67136;47.546;21.630;2023-04-06T03:17:58;100119.59;;;-0.24;64.64
77939;BME280;67136;47.546;21.630;2023-04-06T03:21:03;100110.28;;;-0.27;64.57
77939;BME280;67136;47.546;21.630;2023-04-06T03:24:07;100113.81;;;-0.29;64.65
77939;BME280;67136;47.546;21.630;2023-04-06T03:27:10;100114.75;;;-0.32;64.19
77939;BME280;67136;47.546;21.630;2023-04-06T03:30:14;100120.75;;;-0.31;64.57
77939;BME280;67136;47.546;21.630;2023-04-06T03:33:19;100120.53;;;-0.27;65.43
77939;BME280;67136;47.546;21.630;2023-04-06T03:36:23;100112.09;;;-0.29;64.58
77939;BME280;67136;47.546;21.630;2023-04-06T03:39:28;100110.97;;;-0.23;65.22
77939;BME280;67136;47.546;21.630;2023-04-06T03:42:30;100108.28;;;-0.20;65.46
77939;BME280;67136;47.546;21.630;2023-04-06T03:45:33;100116.00;;;-0.20;65.41
77939;BME280;67136;47.546;21.630;2023-04-06T03:48:36;100113.88;;;-0.11;65.59
77939;BME280;67136;47.546;21.630;2023-04-06T03:51:39;100117.28;;;-0.10;65.62
77939;BME280;67136;47.546;21.630;2023-04-06T03:54:42;100112.28;;;-0.13;65.14
77939;BME280;67136;47.546;21.630;2023-04-06T03:57:46;100113.56;;;-0.03;64.75
77939;BME280;67136;47.546;21.630;2023-04-06T04:00:48;100105.91;;;-0.05;65.45
77939;BME280;67136;47.546;21.630;2023-04-06T04:03:51;100106.62;;;-0.01;65.42
77939;BME280;67136;47.546;21.630;2023-04-06T04:06:54;100107.59;;;-0.04;65.08
77939;BME280;67136;47.546;21.630;2023-04-06T04:09:57;100105.53;;;0.05;64.83
77939;BME280;67136;47.546;21.630;2023-04-06T04:13:00;100110.81;;;0.02;65.02
77939;BME280;67136;47.546;21.630;2023-04-06T04:16:03;100106.31;;;0.07;64.93
77939;BME280;67136;47.546;21.630;2023-04-06T04:19:05;100117.47;;;0.06;65.44
77939;BME280;67136;47.546;21.630;2023-04-06T04:22:09;100116.44;;;0.10;64.75
77939;BME280;67136;47.546;21.630;2023-04-06T04:25:13;100112.84;;;0.14;64.89
77939;BME280;67136;47.546;21.630;2023-04-06T04:28:17;100111.66;;;0.21;64.76
77939;BME280;67136;47.546;21.630;2023-04-06T04:31:20;100114.81;;;0.27;64.75
77939;BME280;67136;47.546;21.630;2023-04-06T04:34:26;100109.22;;;0.38;64.79
77939;BME280;67136;47.546;21.630;2023-04-06T04:37:29;100110.75;;;0.42;64.14
77939;BME280;67136;47.546;21.630;2023-04-06T04:40:32;100113.81;;;0.50;63.67
77939;BME280;67136;47.546;21.630;2023-04-06T04:43:36;100106.72;;;0.55;63.57
77939;BME280;67136;47.546;21.630;2023-04-06T04:46:40;100111.47;;;0.64;63.21
77939;BME280;67136;47.546;21.630;2023-04-06T04:49:44;100111.19;;;0.70;62.69
77939;BME280;67136;47.546;21.630;2023-04-06T04:52:49;100098.88;;;0.76;62.71
77939;BME280;67136;47.546;21.630;2023-04-06T04:55:53;100102.28;;;0.95;62.08
77939;BME280;67136;47.546;21.630;2023-04-06T04:58:57;100097.50;;;1.23;62.51
77939;BME280;67136;47.546;21.630;2023-04-06T05:02:01;100107.78;;;1.59;60.51
77939;BME280;67136;47.546;21.630;2023-04-06T05:05:05;100108.22;;;2.01;60.90
77939;BME280;67136;47.546;21.630;2023-04-06T05:08:08;100103.66;;;2.39;59.16
77939;BME280;67136;47.546;21.630;2023-04-06T05:11:11;100098.91;;;3.11;56.92
77939;BME280;67136;47.546;21.630;2023-04-06T05:14:15;100103.31;;;3.54;54.27
77939;BME280;67136;47.546;21.630;2023-04-06T05:17:18;100110.81;;;3.58;53.91
77939;BME280;67136;47.546;21.630;2023-04-06T05:20:21;100115.00;;;3.61;53.21
77939;BME280;67136;47.546;21.630;2023-04-06T05:23:24;100112.53;;;3.44;53.17
77939;BME280;67136;47.546;21.630;2023-04-06T05:26:27;100126.97;;;3.17;54.28
77939;BME280;67136;47.546;21.630;2023-04-06T05:29:30;100123.84;;;3.41;55.16
77939;BME280;67136;47.546;21.630;2023-04-06T05:32:34;100116.84;;;3.43;57.53
77939;BME280;67136;47.546;21.630;2023-04-06T05:35:37;100122.28;;;3.08;58.49
77939;BME280;67136;47.546;21.630;2023-04-06T05:38:42;100138.81;;;3.21;60.52
77939;BME280;67136;47.546;21.630;2023-04-06T05:41:48;100133.72;;;2.88;62.82
77939;BME280;67136;47.546;21.630;2023-04-06T05:44:52;100138.66;;;2.60;65.46
77939;BME280;67136;47.546;21.630;2023-04-06T05:47:56;100151.00;;;2.71;67.21
77939;BME280;67136;47.546;21.630;2023-04-06T05:50:59;100140.94;;;2.33;69.53
77939;BME280;67136;47.546;21.630;2023-04-06T05:54:04;100136.56;;;2.18;70.86
77939;BME280;67136;47.546;21.630;2023-04-06T05:57:09;100136.25;;;1.90;72.46
77939;BME280;67136;47.546;21.630;2023-04-06T06:00:13;100142.84;;;1.79;75.08
77939;BME280;67136;47.546;21.630;2023-04-06T06:03:19;100140.12;;;1.99;73.72
77939;BME280;67136;47.546;21.630;2023-04-06T06:06:22;100143.28;;;1.70;74.90
77939;BME280;67136;47.546;21.630;2023-04-06T06:09:26;100148.84;;;1.79;75.53
77939;BME280;67136;47.546;21.630;2023-04-06T06:12:30;100141.25;;;1.59;76.50
77939;BME280;67136;47.546;21.630;2023-04-06T06:15:34;100154.09;;;1.42;77.00
77939;BME280;67136;47.546;21.630;2023-04-06T06:18:37;100144.03;;;1.55;77.86
77939;BME280;67136;47.546;21.630;2023-04-06T06:21:41;100150.13;;;1.71;76.63
77939;BME280;67136;47.546;21.630;2023-04-06T06:24:44;100141.38;;;1.39;77.56
77939;BME280;67136;47.546;21.630;2023-04-06T06:27:47;100136.69;;;1.47;77.55
77939;BME280;67136;47.546;21.630;2023-04-06T06:30:51;100136.59;;;1.32;80.42
77939;BME280;67136;47.546;21.630;2023-04-06T06:33:54;100140.25;;;1.09;80.04
77939;BME280;67136;47.546;21.630;2023-04-06T06:36:57;100142.00;;;0.90;81.06
77939;BME280;67136;47.546;21.630;2023-04-06T06:40:00;100144.97;;;0.81;82.20
77939;BME280;67136;47.546;21.630;2023-04-06T06:43:04;100144.94;;;0.62;82.19
77939;BME280;67136;47.546;21.630;2023-04-06T06:46:08;100146.63;;;0.63;83.50
77939;BME280;67136;47.546;21.630;2023-04-06T06:49:10;100139.94;;;1.15;83.31
77939;BME280;67136;47.546;21.630;2023-04-06T06:52:14;100138.13;;;1.36;80.80
77939;BME280;67136;47.546;21.630;2023-04-06T06:55:18;100141.22;;;0.88;81.80
77939;BME280;67136;47.546;21.630;2023-04-06T06:58:24;100144.97;;;0.99;82.19
77939;BME280;67136;47.546;21.630;2023-04-06T07:01:26;100150.00;;;1.02;83.33
77939;BME280;67136;47.546;21.630;2023-04-06T07:04:29;100145.56;;;0.87;83.03
77939;BME280;67136;47.546;21.630;2023-04-06T07:07:32;100144.69;;;0.87;84.08
77939;BME280;67136;47.546;21.630;2023-04-06T07:10:38;100141.66;;;0.79;84.07
77939;BME280;67136;47.546;21.630;2023-04-06T07:13:42;100144.69;;;0.87;83.24
77939;BME280;67136;47.546;21.630;2023-04-06T07:16:45;100140.88;;;0.77;84.11
77939;BME280;67136;47.546;21.630;2023-04-06T07:19:50;100140.81;;;0.97;84.23
77939;BME280;67136;47.546;21.630;2023-04-06T07:22:53;100136.44;;;0.99;83.28
77939;BME280;67136;47.546;21.630;2023-04-06T07:25:57;100139.66;;;1.21;84.21
77939;BME280;67136;47.546;21.630;2023-04-06T07:29:00;100139.25;;;1.11;84.14
77939;BME280;67136;47.546;21.630;2023-04-06T07:32:03;100138.56;;;1.08;84.66
77939;BME280;67136;47.546;21.630;2023-04-06T07:35:07;100138.84;;;1.02;84.15
77939;BME280;67136;47.546;21.630;2023-04-06T07:38:09;100146.66;;;0.82;85.88
77939;BME280;67136;47.546;21.630;2023-04-06T07:41:14;100143.44;;;1.14;84.95
77939;BME280;67136;47.546;21.630;2023-04-06T07:44:17;100148.59;;;0.77;85.62
77939;BME280;67136;47.546;21.630;2023-04-06T07:47:20;100149.16;;;0.83;85.85
77939;BME280;67136;47.546;21.630;2023-04-06T07:50:42;100143.00;;;0.86;86.71
77939;BME280;67136;47.546;21.630;2023-04-06T07:53:45;100145.09;;;1.15;84.54
77939;BME280;67136;47.546;21.630;2023-04-06T07:56:47;100139.75;;;1.01;84.49
77939;BME280;67136;47.546;21.630;2023-04-06T07:59:52;100141.44;;;0.83;86.71
77939;BME280;67136;47.546;21.630;2023-04-06T08:02:55;100142.91;;;0.70;86.16
77939;BME280;67136;47.546;21.630;2023-04-06T08:05:58;100139.66;;;1.21;85.45
77939;BME280;67136;47.546;21.630;2023-04-06T08:09:00;100129.34;;;1.21;84.90
77939;BME280;67136;47.546;21.630;2023-04-06T08:12:03;100129.09;;;1.27;85.57
77939;BME280;67136;47.546;21.630;2023-04-06T08:15:09;100138.97;;;1.36;84.83
77939;BME280;67136;47.546;21.630;2023-04-06T08:18:12;100130.75;;;1.28;85.35
77939;BME280;67136;47.546;21.630;2023-04-06T08:21:15;100138.56;;;1.08;85.62
77939;BME280;67136;47.546;21.630;2023-04-06T08:24:20;100133.00;;;1.17;85.54
77939;BME280;67136;47.546;21.630;2023-04-06T08:27:23;100128.00;;;1.14;84.42
77939;BME280;67136;47.546;21.630;2023-04-06T08:30:26;100130.16;;;1.40;84.18
77939;BME280;67136;47.546;21.630;2023-04-06T08:33:33;100142.88;;;1.43;84.14
77939;BME280;67136;47.546;21.630;2023-04-06T08:36:41;100133.00;;;1.53;84.68
77939;BME280;67136;47.546;21.630;2023-04-06T08:39:44;100131.63;;;1.97;84.80
77939;BME280;67136;47.546;21.630;2023-04-06T08:42:59;100130.34;;;2.05;81.99
77939;BME280;67136;47.546;21.630;2023-04-06T08:46:04;100130.94;;;1.93;82.64
77939;BME280;67136;47.546;21.630;2023-04-06T08:49:07;100130.81;;;1.96;82.01
77939;BME280;67136;47.546;21.630;2023-04-06T08:52:10;100132.03;;;2.06;83.94
77939;BME280;67136;47.546;21.630;2023-04-06T08:55:14;100128.81;;;2.18;82.03
77939;BME280;67136;47.546;21.630;2023-04-06T08:58:17;100124.28;;;2.23;83.53
77939;BME280;67136;47.546;21.630;2023-04-06T09:01:39;100128.28;;;2.12;81.62
77939;BME280;67136;47.546;21.630;2023-04-06T09:04:48;100128.84;;;2.01;81.50
77939;BME280;67136;47.546;21.630;2023-04-06T09:07:52;100130.34;;;1.88;81.93
77939;BME280;67136;47.546;21.630;2023-04-06T09:10:55;100126.03;;;2.06;81.85
77939;BME280;67136;47.546;21.630;2023-04-06T09:13:58;100130.41;;;1.87;80.81
77939;BME280;67136;47.546;21.630;2023-04-06T09:17:00;100119.28;;;1.86;82.65
77939;BME280;67136;47.546;21.630;2023-04-06T09:20:04;100122.00;;;2.00;81.65
77939;BME280;67136;47.546;21.630;2023-04-06T09:23:17;100130.81;;;1.96;82.40
77939;BME280;67136;47.546;21.630;2023-04-06T09:26:20;100118.06;;;2.43;82.12
77939;BME280;67136;47.546;21.630;2023-04-06T09:29:24;100116.47;;;2.40;80.63
77939;BME280;67136;47.546;21.630;2023-04-06T09:32:29;100113.16;;;2.38;80.58
77939;BME280;67136;47.546;21.630;2023-04-06T09:35:32;100113.50;;;2.48;81.49
77939;BME280;67136;47.546;21.630;2023-04-06T09:38:50;100119.34;;;2.51;79.73
77939;BME280;67136;47.546;21.630;2023-04-06T09:41:53;100109.81;;;2.36;80.69
77939;BME280;67136;47.546;21.630;2023-04-06T09:44:59;100114.81;;;2.39;79.96
77939;BME280;67136;47.546;21.630;2023-04-06T09:48:02;100109.78;;;2.53;80.99
77939;BME280;67136;47.546;21.630;2023-04-06T09:51:06;100118.00;;;2.44;80.21
77939;BME280;67136;47.546;21.630;2023-04-06T09:54:11;100115.03;;;2.68;79.55
77939;BME280;67136;47.546;21.630;2023-04-06T10:00:54;100127.97;;;2.35;80.12
77939;BME280;67136;47.546;21.630;2023-04-06T10:07:17;100121.22;;;3.12;79.75
77939;BME280;67136;47.546;21.630;2023-04-06T10:10:20;100114.13;;;2.84;79.23
77939;BME280;67136;47.546;21.630;2023-04-06T10:13:23;100117.69;;;3.13;78.61
77939;BME280;67136;47.546;21.630;2023-04-06T10:16:27;100110.22;;;3.08;77.85
77939;BME280;67136;47.546;21.630;2023-04-06T10:19:44;100116.13;;;2.95;78.79
77939;BME280;67136;47.546;21.630;2023-04-06T10:23:08;100102.47;;;2.77;78.01
77939;BME280;67136;47.546;21.630;2023-04-06T10:26:16;100112.06;;;2.75;79.84
77939;BME280;67136;47.546;21.630;2023-04-06T10:29:20;100102.38;;;2.94;78.31
77939;BME280;67136;47.546;21.630;2023-04-06T10:32:35;100103.72;;;2.70;78.57
77939;BME280;67136;47.546;21.630;2023-04-06T10:35:38;100110.47;;;2.88;79.93
77939;BME280;67136;47.546;21.630;2023-04-06T10:38:42;100098.31;;;3.06;79.63
77939;BME280;67136;47.546;21.630;2023-04-06T10:41:45;100097.87;;;2.67;80.54
77939;BME280;67136;47.546;21.630;2023-04-06T10:44:50;100103.69;;;2.22;81.17
77939;BME280;67136;47.546;21.630;2023-04-06T10:47:53;100099.66;;;2.33;81.27
77939;BME280;67136;47.546;21.630;2023-04-06T10:50:56;100099.22;;;2.08;83.00
77939;BME280;67136;47.546;21.630;2023-04-06T10:53:59;100100.06;;;2.09;82.76
77939;BME280;67136;47.546;21.630;2023-04-06T10:57:03;100094.06;;;2.08;83.54
77939;BME280;67136;47.546;21.630;2023-04-06T11:00:07;100100.50;;;2.17;82.79
77939;BME280;67136;47.546;21.630;2023-04-06T11:03:14;100097.00;;;2.50;81.86
77939;BME280;67136;47.546;21.630;2023-04-06T11:06:27;100094.34;;;2.52;81.44
77939;BME280;67136;47.546;21.630;2023-04-06T11:09:31;100098.66;;;2.69;82.24
77939;BME280;67136;47.546;21.630;2023-04-06T11:12:34;100092.88;;;2.48;81.68
77939;BME280;67136;47.546;21.630;2023-04-06T11:15:37;100098.75;;;2.34;81.96
77939;BME280;67136;47.546;21.630;2023-04-06T11:19:07;100099.62;;;2.18;82.74
77939;BME280;67136;47.546;21.630;2023-04-06T11:22:10;100088.53;;;2.48;82.13
77939;BME280;67136;47.546;21.630;2023-04-06T11:25:13;100086.91;;;2.79;80.61
77939;BME280;67136;47.546;21.630;2023-04-06T11:28:15;100085.41;;;2.90;81.17
77939;BME280;67136;47.546;21.630;2023-04-06T11:31:18;100080.19;;;3.37;79.87
77939;BME280;67136;47.546;21.630;2023-04-06T11:34:22;100081.41;;;2.85;80.43
77939;BME280;67136;47.546;21.630;2023-04-06T11:37:26;100087.41;;;2.85;82.08
77939;BME280;67136;47.546;21.630;2023-04-06T11:40:30;100088.06;;;2.89;80.57
77939;BME280;67136;47.546;21.630;2023-04-06T11:43:34;100082.56;;;2.79;82.59
77939;BME280;67136;47.546;21.630;2023-04-06T11:46:36;100082.56;;;2.95;80.93
77939;BME280;67136;47.546;21.630;2023-04-06T11:49:41;100077.56;;;3.07;80.20
77939;BME280;67136;47.546;21.630;2023-04-06T11:52:44;100084.03;;;3.30;79.51
77939;BME280;67136;47.546;21.630;2023-04-06T11:55:46;100081.53;;;3.13;80.67
77939;BME280;67136;47.546;21.630;2023-04-06T11:58:49;100080.19;;;3.37;80.22
77939;BME280;67136;47.546;21.630;2023-04-06T12:01:52;100077.37;;;3.26;80.47
77939;BME280;67136;47.546;21.630;2023-04-06T12:04:55;100074.66;;;2.98;80.86
77939;BME280;67136;47.546;21.630;2023-04-06T12:07:58;100075.75;;;2.94;81.77
77939;BME280;67136;47.546;21.630;2023-04-06T12:11:04;100074.72;;;3.12;82.15
77939;BME280;67136;47.546;21.630;2023-04-06T12:14:07;100070.53;;;3.09;81.08
77939;BME280;67136;47.546;21.630;2023-04-06T12:17:10;100066.91;;;2.67;82.79
77939;BME280;67136;47.546;21.630;2023-04-06T12:20:13;100069.41;;;2.84;82.77
77939;BME280;67136;47.546;21.630;2023-04-06T12:23:28;100067.59;;;2.70;81.83
77939;BME280;67136;47.546;21.630;2023-04-06T12:26:31;100068.91;;;2.62;82.73
77939;BME280;67136;47.546;21.630;2023-04-06T12:29:34;100072.06;;;2.51;83.81
77939;BME280;67136;47.546;21.630;2023-04-06T12:32:36;100063.69;;;2.30;84.06
77939;BME280;67136;47.546;21.630;2023-04-06T12:35:39;100066.34;;;2.29;85.02
77939;BME280;67136;47.546;21.630;2023-04-06T12:38:42;100071.47;;;2.13;85.25
77939;BME280;67136;47.546;21.630;2023-04-06T12:41:47;100065.34;;;2.16;84.71
77939;BME280;67136;47.546;21.630;2023-04-06T12:44:49;100066.47;;;2.10;85.54
77939;BME280;67136;47.546;21.630;2023-04-06T12:47:52;100061.16;;;2.13;86.32
77939;BME280;67136;47.546;21.630;2023-04-06T12:51:00;100060.56;;;2.08;86.70
77939;BME280;67136;47.546;21.630;2023-04-06T12:54:03;100064.03;;;2.24;86.51
77939;BME280;67136;47.546;21.630;2023-04-06T12:57:05;100059.34;;;2.15;86.50
77939;BME280;67136;47.546;21.630;2023-04-06T13:00:08;100059.03;;;2.21;86.11
77939;BME280;67136;47.546;21.630;2023-04-06T13:03:11;100058.56;;;2.13;85.54
77939;BME280;67136;47.546;21.630;2023-04-06T13:06:14;100055.06;;;2.31;85.47
77939;BME280;67136;47.546;21.630;2023-04-06T13:09:17;100051.38;;;2.35;85.52
77939;BME280;67136;47.546;21.630;2023-04-06T13:12:20;100059.56;;;2.43;86.07
77939;BME280;67136;47.546;21.630;2023-04-06T13:15:22;100056.53;;;2.35;85.71
77939;BME280;67136;47.546;21.630;2023-04-06T13:18:26;100054.56;;;2.40;85.21
77939;BME280;67136;47.546;21.630;2023-04-06T13:21:28;100055.38;;;2.25;86.84
77939;BME280;67136;47.546;21.630;2023-04-06T13:24:31;100053.06;;;2.36;85.31
77939;BME280;67136;47.546;21.630;2023-04-06T13:27:33;100052.66;;;2.28;87.12
77939;BME280;67136;47.546;21.630;2023-04-06T13:30:38;100052.34;;;2.17;86.29
77939;BME280;67136;47.546;21.630;2023-04-06T13:33:40;100053.50;;;2.12;87.28
77939;BME280;67136;47.546;21.630;2023-04-06T13:36:43;100047.81;;;2.05;86.90
77939;BME280;67136;47.546;21.630;2023-04-06T13:39:46;100047.16;;;2.02;88.11
77939;BME280;67136;47.546;21.630;2023-04-06T13:42:48;100053.16;;;2.02;88.27
77939;BME280;67136;47.546;21.630;2023-04-06T13:45:52;100054.69;;;1.89;89.29
77939;BME280;67136;47.546;21.630;2023-04-06T13:48:57;100046.97;;;1.89;88.50
77939;BME280;67136;47.546;21.630;2023-04-06T13:51:59;100045.88;;;1.93;89.21
77939;BME280;67136;47.546;21.630;2023-04-06T13:55:02;100050.75;;;1.99;88.78
77939;BME280;67136;47.546;21.630;2023-04-06T13:58:05;100039.84;;;1.94;88.42
77939;BME280;67136;47.546;21.630;2023-04-06T14:01:08;100044.16;;;1.94;88.73
77939;BME280;67136;47.546;21.630;2023-04-06T14:04:13;100040.00;;;1.91;88.23
77939;BME280;67136;47.546;21.630;2023-04-06T14:07:15;100039.47;;;1.85;88.71
77939;BME280;67136;47.546;21.630;2023-04-06T14:10:18;100039.94;;;1.76;88.49
77939;BME280;67136;47.546;21.630;2023-04-06T14:13:23;100034.84;;;1.74;88.93
77939;BME280;67136;47.546;21.630;2023-04-06T14:16:25;100037.44;;;1.74;88.22
77939;BME280;67136;47.546;21.630;2023-04-06T14:19:28;100028.94;;;1.72;88.62
77939;BME280;67136;47.546;21.630;2023-04-06T14:22:31;100034.09;;;1.72;88.30
77939;BME280;67136;47.546;21.630;2023-04-06T14:25:34;100033.56;;;1.66;87.85
77939;BME280;67136;47.546;21.630;2023-04-06T14:28:37;100025.31;;;1.59;88.16
77939;BME280;67136;47.546;21.630;2023-04-06T14:31:39;100034.41;;;1.66;88.72
77939;BME280;67136;47.546;21.630;2023-04-06T14:34:42;100031.69;;;1.69;88.42
77939;BME280;67136;47.546;21.630;2023-04-06T14:37:44;100033.41;;;1.69;88.49
77939;BME280;67136;47.546;21.630;2023-04-06T14:40:48;100033.94;;;1.75;88.09
77939;BME280;67136;47.546;21.630;2023-04-06T14:43:51;100031.59;;;1.71;87.52
77939;BME280;67136;47.546;21.630;2023-04-06T14:46:54;100027.41;;;1.68;88.65
77939;BME280;67136;47.546;21.630;2023-04-06T14:49:57;100028.78;;;1.75;88.40
77939;BME280;67136;47.546;21.630;2023-04-06T14:53:00;100033.78;;;1.78;89.09
77939;BME280;67136;47.546;21.630;2023-04-06T14:56:03;100030.16;;;1.82;88.68
77939;BME280;67136;47.546;21.630;2023-04-06T14:59:05;100035.12;;;1.85;88.09
77939;BME280;67136;47.546;21.630;2023-04-06T15:02:08;100029.31;;;1.82;88.17
77939;BME280;67136;47.546;21.630;2023-04-06T15:05:11;100026.63;;;1.83;87.66
77939;BME280;67136;47.546;21.630;2023-04-06T15:08:13;100033.03;;;1.76;88.17
77939;BME280;67136;47.546;21.630;2023-04-06T15:11:17;100024.47;;;1.76;87.99
77939;BME280;67136;47.546;21.630;2023-04-06T15:14:20;100024.56;;;1.74;88.93
77939;BME280;67136;47.546;21.630;2023-04-06T15:17:22;100021.06;;;1.75;89.18
77939;BME280;67136;47.546;21.630;2023-04-06T15:20:25;100025.91;;;1.81;88.35
77939;BME280;67136;47.546;21.630;2023-04-06T15:23:29;100025.16;;;1.79;88.58
77939;BME280;67136;47.546;21.630;2023-04-06T15:26:31;100026.00;;;1.80;88.56
77939;BME280;67136;47.546;21.630;2023-04-06T15:29:34;100021.97;;;1.74;87.90
77939;BME280;67136;47.546;21.630;2023-04-06T15:32:37;100021.81;;;1.77;88.52
77939;BME280;67136;47.546;21.630;2023-04-06T15:35:41;100021.47;;;1.68;88.43
77939;BME280;67136;47.546;21.630;2023-04-06T15:38:44;100027.41;;;1.68;88.91
77939;BME280;67136;47.546;21.630;2023-04-06T15:41:47;100024.75;;;1.70;89.41
77939;BME280;67136;47.546;21.630;2023-04-06T15:44:50;100025.41;;;1.58;89.49
77939;BME280;67136;47.546;21.630;2023-04-06T15:47:53;100026.38;;;1.55;89.43
77939;BME280;67136;47.546;21.630;2023-04-06T15:50:56;100035.03;;;1.54;89.92
77939;BME280;67136;47.546;21.630;2023-04-06T15:53:59;100027.59;;;1.48;90.16
77939;BME280;67136;47.546;21.630;2023-04-06T15:57:02;100030.31;;;1.45;90.04
77939;BME280;67136;47.546;21.630;2023-04-06T16:00:05;100031.53;;;1.38;89.99
77939;BME280;67136;47.546;21.630;2023-04-06T16:03:10;100028.22;;;1.36;89.67
77939;BME280;67136;47.546;21.630;2023-04-06T16:06:13;100025.94;;;1.30;89.78
77939;BME280;67136;47.546;21.630;2023-04-06T16:09:16;100036.66;;;1.21;90.49